createdAt,value
2022-08-19T00:01:32.874Z,15.98
2022-08-19T00:04:14.155Z,17.63
2022-08-19T00:06:49.670Z,24.30
2022-08-19T00:09:24.635Z,18.70
2022-08-19T00:12:01.026Z,12.52
2022-08-19T00:14:35.800Z,16.58
2022-08-19T00:17:10.954Z,13.80
2022-08-19T00:19:44.981Z,17.58
2022-08-19T00:22:27.072Z,11.07
2022-08-19T00:25:00.340Z,14.88
2022-08-19T00:27:37.549Z,15.45
2022-08-19T00:30:12.514Z,14.13
2022-08-19T00:32:47.046Z,12.57
2022-08-19T00:35:20.979Z,13.15
2022-08-19T00:37:55.221Z,12.88
2022-08-19T00:40:31.233Z,12.65
2022-08-19T00:43:12.215Z,12.30
2022-08-19T00:45:46.454Z,19.77
2022-08-19T00:48:21.340Z,11.88
2022-08-19T00:50:56.383Z,15.32
2022-08-19T00:53:33.231Z,12.82
2022-08-19T00:56:09.265Z,14.30
2022-08-19T00:58:44.837Z,14.30
2022-08-19T01:01:18.584Z,17.30
2022-08-19T01:03:58.014Z,15.55
2022-08-19T01:06:33.650Z,12.90
2022-08-19T01:09:07.712Z,13.15
2022-08-19T01:11:48.857Z,14.75
2022-08-19T01:14:25.514Z,16.50
2022-08-19T01:17:00.463Z,15.43
2022-08-19T01:19:44.356Z,12.73
2022-08-19T01:22:32.891Z,13.82
2022-08-19T01:25:09.971Z,15.35
2022-08-19T01:27:53.779Z,12.20
2022-08-19T01:30:30.070Z,16.65
2022-08-19T01:33:04.703Z,15.80
2022-08-19T01:35:39.876Z,15.45
2022-08-19T01:38:16.012Z,16.80
2022-08-19T01:40:51.153Z,15.02
2022-08-19T01:43:28.190Z,14.80
2022-08-19T01:46:12.956Z,14.05
2022-08-19T01:48:48.197Z,13.48
2022-08-19T01:51:21.962Z,14.10
2022-08-19T01:53:56.191Z,12.75
2022-08-19T01:56:32.163Z,17.08
2022-08-19T01:59:08.923Z,15.43
2022-08-19T02:01:43.034Z,12.50
2022-08-19T02:04:16.878Z,11.10
2022-08-19T02:06:50.430Z,9.80
2022-08-19T02:09:24.263Z,12.07
2022-08-19T02:11:59.647Z,14.55
2022-08-19T02:14:39.486Z,11.15
2022-08-19T02:17:13.762Z,11.27
2022-08-19T02:19:47.326Z,14.20
2022-08-19T02:22:21.459Z,10.02
2022-08-19T02:24:55.568Z,10.15
2022-08-19T02:27:31.276Z,12.85
2022-08-19T02:30:08.400Z,9.68
2022-08-19T02:32:48.049Z,10.68
2022-08-19T02:35:21.957Z,13.00
2022-08-19T02:38:11.534Z,10.63
2022-08-19T02:40:46.811Z,14.10
2022-08-19T02:43:23.404Z,14.05
2022-08-19T02:45:58.048Z,14.80
2022-08-19T02:48:31.394Z,9.50
2022-08-19T02:51:06.461Z,15.23
2022-08-19T02:53:39.752Z,14.55
2022-08-19T02:56:14.088Z,8.95
2022-08-19T02:58:50.345Z,16.48
2022-08-19T03:01:30.011Z,12.38
2022-08-19T03:04:05.829Z,12.32
2022-08-19T03:06:42.836Z,11.75
2022-08-19T03:09:17.535Z,11.30
2022-08-19T03:11:52.821Z,13.48
2022-08-19T03:14:29.159Z,12.63
2022-08-19T03:17:02.845Z,11.45
2022-08-19T03:19:37.596Z,13.65
2022-08-19T03:22:11.880Z,12.65
2022-08-19T03:24:45.669Z,13.27
2022-08-19T03:27:20.397Z,13.45
2022-08-19T03:29:55.789Z,13.57
2022-08-19T03:32:33.029Z,9.68
2022-08-19T03:35:07.435Z,11.73
2022-08-19T03:37:41.510Z,12.38
2022-08-19T03:40:16.611Z,12.73
2022-08-19T03:42:50.710Z,9.70
2022-08-19T03:45:26.173Z,12.73
2022-08-19T03:48:02.324Z,11.23
2022-08-19T03:50:35.857Z,11.30
2022-08-19T03:53:11.334Z,9.48
2022-08-19T03:55:46.928Z,9.27
2022-08-19T03:58:20.153Z,14.60
2022-08-19T04:00:56.326Z,12.20
2022-08-19T04:03:30.587Z,13.40
2022-08-19T04:06:04.258Z,12.07
2022-08-19T04:08:37.168Z,16.05
2022-08-19T04:11:15.105Z,14.50
2022-08-19T04:13:48.046Z,14.35
2022-08-19T04:16:28.708Z,15.95
2022-08-19T04:19:11.631Z,14.07
2022-08-19T04:21:48.071Z,14.27
2022-08-19T04:24:22.743Z,13.57
2022-08-19T04:26:56.903Z,13.00
2022-08-19T04:29:31.158Z,14.15
2022-08-19T04:32:09.077Z,13.55
2022-08-19T04:35:01.436Z,16.25
2022-08-19T04:37:40.739Z,17.58
2022-08-19T04:40:31.136Z,12.05
2022-08-19T04:43:05.512Z,10.50
2022-08-19T04:45:43.840Z,11.85
2022-08-19T04:48:32.168Z,13.60
2022-08-19T04:51:17.747Z,14.18
2022-08-19T04:53:51.275Z,12.05
2022-08-19T04:56:28.691Z,12.63
2022-08-19T04:59:05.805Z,14.57
2022-08-19T05:01:39.894Z,14.88
2022-08-19T05:04:15.925Z,14.48
2022-08-19T05:07:00.092Z,14.10
2022-08-19T05:09:55.608Z,15.98
2022-08-19T05:12:30.017Z,12.68
2022-08-19T05:15:04.777Z,13.50
2022-08-19T05:18:01.441Z,12.38
2022-08-19T05:20:58.638Z,19.70
2022-08-19T05:23:32.508Z,11.63
2022-08-19T05:26:06.373Z,15.40
2022-08-19T05:28:40.214Z,12.10
2022-08-19T05:31:23.658Z,12.15
2022-08-19T05:33:58.166Z,12.98
2022-08-19T05:36:38.835Z,14.63
2022-08-19T05:39:38.728Z,10.02
2022-08-19T05:42:14.302Z,12.25
2022-08-19T05:44:52.003Z,16.23
2022-08-19T05:47:30.694Z,10.90
2022-08-19T05:50:05.299Z,13.98
2022-08-19T05:52:43.740Z,11.10
2022-08-19T05:55:25.018Z,12.95
2022-08-19T05:57:59.727Z,12.52
2022-08-19T06:00:34.455Z,11.00
2022-08-19T06:03:11.712Z,14.05
2022-08-19T06:05:51.665Z,12.20
2022-08-19T06:08:34.243Z,15.75
2022-08-19T06:11:24.098Z,12.23
2022-08-19T06:14:00.442Z,14.30
2022-08-19T06:16:37.700Z,12.63
2022-08-19T06:19:13.372Z,12.90
2022-08-19T06:21:48.887Z,11.15
2022-08-19T06:24:26.401Z,13.85
2022-08-19T06:27:04.082Z,12.43
2022-08-19T06:29:41.405Z,10.85
2022-08-19T06:32:15.492Z,11.88
2022-08-19T06:34:49.420Z,9.95
2022-08-19T06:37:23.741Z,12.00
2022-08-19T06:40:02.440Z,10.80
2022-08-19T06:42:50.971Z,11.13
2022-08-19T06:45:35.498Z,11.82
2022-08-19T06:48:09.879Z,10.65
2022-08-19T06:50:47.736Z,13.02
2022-08-19T06:53:22.428Z,13.43
2022-08-19T06:56:03.728Z,10.23
2022-08-19T06:58:36.983Z,11.60
2022-08-19T07:01:14.029Z,11.48
2022-08-19T07:03:48.639Z,11.30
2022-08-19T07:09:19.556Z,12.30
2022-08-19T07:11:59.835Z,14.75
2022-08-19T07:14:33.308Z,11.75
2022-08-19T07:17:06.540Z,14.13
2022-08-19T07:19:40.930Z,12.73
2022-08-19T07:22:17.302Z,9.75
2022-08-19T07:24:51.725Z,12.88
2022-08-19T07:27:27.599Z,12.05
2022-08-19T07:30:01.075Z,13.23
2022-08-19T07:32:34.920Z,14.13
2022-08-19T07:35:11.863Z,9.70
2022-08-19T07:37:46.519Z,13.30
2022-08-19T07:40:25.233Z,13.13
2022-08-19T07:43:00.973Z,14.07
2022-08-19T07:45:35.145Z,13.73
2022-08-19T07:48:10.774Z,11.32
2022-08-19T07:50:45.195Z,10.10
2022-08-19T07:53:19.251Z,18.05
2022-08-19T07:55:57.254Z,11.50
2022-08-19T07:58:33.970Z,13.50
2022-08-19T08:01:08.772Z,13.95
2022-08-19T08:03:59.789Z,12.70
2022-08-19T08:06:49.703Z,15.48
2022-08-19T08:09:27.824Z,11.32
2022-08-19T08:12:18.071Z,12.38
2022-08-19T08:15:04.212Z,15.63
2022-08-19T08:17:49.177Z,12.80
2022-08-19T08:20:25.624Z,12.48
2022-08-19T08:23:16.142Z,14.07
2022-08-19T08:25:50.590Z,14.15
2022-08-19T08:28:24.713Z,11.57
2022-08-19T08:31:01.689Z,14.90
2022-08-19T08:33:35.402Z,11.50
2022-08-19T08:36:11.418Z,19.83
2022-08-19T08:38:47.714Z,13.23
2022-08-19T08:41:35.114Z,13.23
2022-08-19T08:44:09.554Z,16.45
2022-08-19T08:46:56.837Z,12.85
2022-08-19T08:49:39.000Z,13.75
2022-08-19T08:52:18.331Z,14.65
2022-08-19T08:54:57.443Z,17.13
2022-08-19T08:57:40.799Z,12.15
2022-08-19T09:00:19.468Z,15.00
2022-08-19T09:02:57.334Z,15.15
2022-08-19T09:05:48.385Z,15.18
2022-08-19T09:08:31.130Z,15.35
2022-08-19T09:11:09.118Z,17.27
2022-08-19T09:13:57.340Z,14.30
2022-08-19T09:16:32.268Z,10.50
2022-08-19T09:19:12.934Z,11.60
2022-08-19T09:21:46.450Z,15.45
2022-08-19T09:24:20.676Z,14.90
2022-08-19T09:26:53.564Z,12.82
2022-08-19T09:29:26.623Z,12.38
2022-08-19T09:32:00.942Z,13.13
2022-08-19T09:34:37.698Z,12.90
2022-08-19T09:37:12.150Z,16.00
2022-08-19T09:39:51.639Z,13.95
2022-08-19T09:42:29.911Z,12.35
2022-08-19T09:45:05.330Z,12.38
2022-08-19T09:47:43.991Z,14.82
2022-08-19T09:50:20.380Z,14.50
2022-08-19T09:52:57.184Z,16.27
2022-08-19T09:55:33.473Z,14.43
2022-08-19T09:58:14.497Z,13.68
2022-08-19T10:00:51.614Z,12.32
2022-08-19T10:03:25.544Z,13.50
2022-08-19T10:06:14.883Z,18.80
2022-08-19T10:08:52.106Z,12.10
2022-08-19T10:11:36.315Z,12.55
2022-08-19T10:14:14.679Z,16.77
2022-08-19T10:16:48.244Z,14.95
2022-08-19T10:19:25.309Z,15.48
2022-08-19T10:22:01.758Z,15.88
2022-08-19T10:24:36.372Z,15.88
2022-08-19T10:27:11.627Z,14.13
2022-08-19T10:29:50.459Z,14.73
2022-08-19T10:32:33.832Z,15.95
2022-08-19T10:35:10.363Z,14.13
2022-08-19T10:37:56.820Z,12.25
2022-08-19T10:40:32.666Z,15.25
2022-08-19T10:43:06.441Z,16.70
2022-08-19T10:45:52.270Z,14.80
2022-08-19T10:48:26.264Z,16.58
2022-08-19T10:51:22.796Z,11.43
2022-08-19T10:53:58.611Z,14.48
2022-08-19T10:56:49.043Z,16.27
2022-08-19T10:59:26.705Z,12.05
2022-08-19T11:02:04.514Z,14.85
2022-08-19T11:04:38.816Z,14.10
2022-08-19T11:07:13.901Z,13.60
2022-08-19T11:09:50.698Z,14.27
2022-08-19T11:12:24.386Z,15.25
2022-08-19T11:14:57.511Z,11.43
2022-08-19T11:17:34.179Z,16.60
2022-08-19T11:20:08.662Z,12.98
2022-08-19T11:22:42.295Z,13.95
2022-08-19T11:25:17.624Z,13.48
2022-08-19T11:27:53.494Z,14.57
2022-08-19T11:30:27.544Z,13.45
2022-08-19T11:33:05.965Z,12.50
2022-08-19T11:35:43.459Z,12.35
2022-08-19T11:38:17.424Z,13.98
2022-08-19T11:41:00.436Z,13.23
2022-08-19T11:43:37.324Z,14.07
2022-08-19T11:46:12.555Z,12.30
2022-08-19T11:48:46.090Z,14.38
2022-08-19T11:51:21.859Z,16.48
2022-08-19T11:53:56.231Z,15.30
2022-08-19T11:56:33.322Z,13.75
2022-08-19T11:59:14.074Z,15.48
2022-08-19T12:01:48.455Z,15.13
2022-08-19T12:04:22.750Z,17.05
2022-08-19T12:06:56.546Z,16.42
2022-08-19T12:09:30.979Z,16.67
2022-08-19T12:12:07.826Z,15.27
2022-08-19T12:14:41.555Z,13.43
2022-08-19T12:17:15.836Z,15.68
2022-08-19T12:19:49.674Z,15.35
2022-08-19T12:22:24.001Z,16.02
2022-08-19T12:24:57.833Z,16.65
2022-08-19T12:27:42.776Z,15.75
2022-08-19T12:30:21.283Z,26.67
2022-08-19T12:32:56.052Z,17.58
2022-08-19T12:35:31.584Z,18.48
2022-08-19T12:38:06.195Z,20.23
2022-08-19T12:40:39.902Z,16.83
2022-08-19T12:43:17.637Z,16.70
2022-08-19T12:45:51.196Z,15.70
2022-08-19T12:48:33.657Z,15.57
2022-08-19T12:51:16.683Z,13.73
2022-08-19T12:53:52.524Z,16.60
2022-08-19T12:56:26.118Z,17.58
2022-08-19T12:59:07.898Z,17.00
2022-08-19T13:01:44.516Z,19.70
2022-08-19T13:04:18.205Z,15.85
2022-08-19T13:06:52.345Z,15.93
2022-08-19T13:09:26.142Z,17.83
2022-08-19T13:12:00.349Z,16.20
2022-08-19T13:14:36.465Z,19.70
2022-08-19T13:17:11.182Z,15.70
2022-08-19T13:19:45.849Z,15.88
2022-08-19T13:22:20.785Z,17.58
2022-08-19T13:24:55.434Z,21.88
2022-08-19T13:27:29.467Z,19.30
2022-08-19T13:30:20.883Z,18.77
2022-08-19T13:33:11.158Z,18.73
2022-08-19T13:35:47.428Z,17.58
2022-08-19T13:38:24.922Z,14.45
2022-08-19T13:41:00.931Z,16.95
2022-08-19T13:43:36.304Z,17.42
2022-08-19T13:46:16.807Z,18.88
2022-08-19T13:48:50.993Z,16.48
2022-08-19T13:51:25.087Z,19.17
2022-08-19T13:53:59.071Z,20.30
2022-08-19T13:56:34.250Z,18.30
2022-08-19T13:59:11.044Z,17.40
2022-08-19T14:01:46.598Z,19.60
2022-08-19T14:04:21.124Z,17.33
2022-08-19T14:06:55.263Z,18.83
2022-08-19T14:09:31.112Z,16.70
2022-08-19T14:12:08.898Z,17.00
2022-08-19T14:14:44.488Z,20.38
2022-08-19T14:17:21.999Z,16.73
2022-08-19T14:20:10.377Z,18.23
2022-08-19T14:22:46.980Z,17.58
2022-08-19T14:25:21.964Z,19.13
2022-08-19T14:27:56.688Z,20.88
2022-08-19T14:30:35.271Z,22.05
2022-08-19T14:33:20.073Z,23.20
2022-08-19T14:35:59.778Z,16.25
2022-08-19T14:38:34.509Z,20.00
2022-08-19T14:41:21.607Z,17.95
2022-08-19T14:43:57.571Z,17.75
2022-08-19T14:46:36.253Z,18.92
2022-08-19T14:49:14.925Z,18.60
2022-08-19T14:51:50.865Z,17.48
2022-08-19T14:54:26.821Z,18.15
2022-08-19T14:57:05.131Z,17.25
2022-08-19T14:59:40.918Z,18.38
2022-08-19T15:02:33.798Z,15.98
2022-08-19T15:05:11.496Z,19.23
2022-08-19T15:07:47.016Z,17.95
2022-08-19T15:10:24.020Z,14.57
2022-08-19T15:13:13.826Z,19.27
2022-08-19T15:15:50.705Z,21.98
2022-08-19T15:18:34.052Z,16.77
2022-08-19T15:21:10.588Z,17.20
2022-08-19T15:23:46.202Z,19.13
2022-08-19T15:26:24.605Z,17.38
2022-08-19T15:28:59.499Z,25.67
2022-08-19T15:31:44.393Z,17.27
2022-08-19T15:34:22.933Z,18.77
2022-08-19T15:37:01.176Z,15.40
2022-08-19T15:39:36.100Z,20.77
2022-08-19T15:42:11.713Z,17.23
2022-08-19T15:45:02.790Z,18.52
2022-08-19T15:47:37.333Z,17.35
2022-08-19T15:50:16.035Z,18.70
2022-08-19T15:52:57.649Z,18.88
2022-08-19T15:55:34.828Z,17.80
2022-08-19T15:58:29.059Z,20.95
2022-08-19T16:01:20.659Z,21.17
2022-08-19T16:04:14.717Z,26.15
2022-08-19T16:06:52.137Z,25.35
2022-08-19T16:09:38.978Z,22.60
2022-08-19T16:12:13.563Z,24.33
2022-08-19T16:14:51.448Z,27.60
2022-08-19T16:17:26.105Z,31.67
2022-08-19T16:20:00.511Z,30.25
2022-08-19T16:22:36.187Z,29.23
2022-08-19T16:25:16.024Z,23.55
2022-08-19T16:27:56.252Z,28.58
2022-08-19T16:30:48.510Z,27.52
2022-08-19T16:33:26.183Z,28.60
2022-08-19T16:36:07.204Z,24.88
2022-08-19T16:38:47.800Z,26.17
2022-08-19T16:41:25.790Z,32.90
2022-08-19T16:44:00.120Z,24.13
2022-08-19T16:46:36.383Z,22.20
2022-08-19T16:49:10.925Z,24.85
2022-08-19T16:51:46.809Z,28.45
2022-08-19T16:54:21.859Z,28.20
2022-08-19T16:56:57.395Z,23.15
2022-08-19T16:59:31.571Z,25.42
2022-08-19T17:02:06.583Z,24.55
2022-08-19T17:04:55.708Z,27.13
2022-08-19T17:07:35.174Z,20.85
2022-08-19T17:10:11.717Z,23.08
2022-08-19T17:12:48.444Z,18.88
2022-08-19T17:15:24.726Z,23.23
2022-08-19T17:18:03.259Z,22.88
2022-08-19T17:20:38.490Z,25.73
2022-08-19T17:23:14.571Z,25.77
2022-08-19T17:25:49.251Z,21.52
2022-08-19T17:28:27.464Z,25.67
2022-08-19T17:31:03.595Z,18.48
2022-08-19T17:33:41.085Z,19.33
2022-08-19T17:36:16.276Z,19.90
2022-08-19T17:38:50.017Z,19.13
2022-08-19T17:41:24.465Z,21.67
2022-08-19T17:44:00.871Z,19.58
2022-08-19T17:46:35.458Z,21.90
2022-08-19T17:49:09.073Z,24.92
2022-08-19T17:51:50.939Z,20.88
2022-08-19T17:54:25.407Z,21.65
2022-08-19T17:57:07.581Z,22.25
2022-08-19T17:59:43.357Z,24.63
2022-08-19T18:02:20.656Z,23.15
2022-08-19T18:04:55.494Z,24.27
2022-08-19T18:07:29.437Z,29.13
2022-08-19T18:10:03.621Z,24.83
2022-08-19T18:12:38.322Z,24.90
2022-08-19T18:15:14.937Z,28.27
2022-08-19T18:17:50.790Z,24.10
2022-08-19T18:20:24.896Z,23.65
2022-08-19T18:22:58.875Z,23.20
2022-08-19T18:25:53.552Z,25.45
2022-08-19T18:28:28.014Z,23.88
2022-08-19T18:31:03.725Z,23.48
2022-08-19T18:33:43.974Z,19.83
2022-08-19T18:36:32.078Z,26.85
2022-08-19T18:39:29.351Z,21.52
2022-08-19T18:42:19.522Z,23.33
2022-08-19T18:45:08.651Z,21.20
2022-08-19T18:48:00.250Z,21.65
2022-08-19T18:50:34.596Z,22.20
2022-08-19T18:53:07.847Z,22.65
2022-08-19T18:55:41.627Z,20.77
2022-08-19T18:58:15.555Z,20.40
2022-08-19T19:00:49.595Z,27.80
2022-08-19T19:03:25.969Z,23.17
2022-08-19T19:06:00.139Z,21.77
2022-08-19T19:08:33.571Z,21.17
2022-08-19T19:11:07.523Z,22.15
2022-08-19T19:13:42.991Z,25.55
2022-08-19T19:16:17.296Z,27.13
2022-08-19T19:18:53.841Z,23.42
2022-08-19T19:21:31.925Z,26.25
2022-08-19T19:24:10.224Z,21.83
2022-08-19T19:26:47.440Z,20.17
2022-08-19T19:29:25.481Z,23.60
2022-08-19T19:32:00.936Z,23.75
2022-08-19T19:34:36.338Z,23.63
2022-08-19T19:37:10.206Z,20.48
2022-08-19T19:39:46.184Z,22.77
2022-08-19T19:42:22.960Z,23.63
2022-08-19T19:44:58.364Z,23.33
2022-08-19T19:47:33.480Z,25.40
2022-08-19T19:50:14.895Z,26.25
2022-08-19T19:52:50.905Z,24.15
2022-08-19T19:55:27.626Z,26.88
2022-08-19T19:58:02.123Z,23.35
2022-08-19T20:00:35.401Z,24.65
2022-08-19T20:03:09.322Z,25.30
2022-08-19T20:05:44.730Z,23.95
2022-08-19T20:08:34.735Z,28.15
2022-08-19T20:11:11.040Z,27.00
2022-08-19T20:13:45.767Z,26.23
2022-08-19T20:16:19.761Z,28.08
2022-08-19T20:18:53.287Z,28.27
2022-08-19T20:21:35.460Z,25.83
2022-08-19T20:24:10.356Z,25.60
2022-08-19T20:26:43.759Z,27.45
2022-08-19T20:29:38.749Z,30.15
2022-08-19T20:32:15.254Z,27.20
2022-08-19T20:34:51.500Z,26.75
2022-08-19T20:37:26.928Z,25.40
2022-08-19T20:40:00.453Z,25.30
2022-08-19T20:42:34.587Z,29.10
2022-08-19T20:45:19.713Z,29.77
2022-08-19T20:48:03.976Z,23.20
2022-08-19T20:50:46.651Z,27.35
2022-08-19T20:53:24.719Z,25.23
2022-08-19T20:55:59.818Z,25.52
2022-08-19T20:58:33.470Z,27.55
2022-08-19T21:01:11.374Z,26.45
2022-08-19T21:03:46.579Z,30.33
2022-08-19T21:06:20.468Z,26.17
2022-08-19T21:08:58.737Z,30.02
2022-08-19T21:11:33.388Z,25.90
2022-08-19T21:14:07.403Z,26.10
2022-08-19T21:16:41.130Z,28.38
2022-08-19T21:19:15.229Z,27.98
2022-08-19T21:21:48.105Z,26.27
2022-08-19T21:24:30.120Z,29.17
2022-08-19T21:27:05.005Z,29.15
2022-08-19T21:29:41.893Z,27.58
2022-08-19T21:32:16.907Z,31.17
2022-08-19T21:34:52.259Z,26.60
2022-08-19T21:37:26.268Z,24.40
2022-08-19T21:40:01.889Z,26.83
2022-08-19T21:42:35.824Z,28.88
2022-08-19T21:45:09.377Z,30.15
2022-08-19T21:47:43.617Z,28.08
2022-08-19T21:50:17.212Z,26.10
2022-08-19T21:52:50.753Z,33.72
2022-08-19T21:55:26.818Z,30.30
2022-08-19T21:58:01.825Z,30.95
2022-08-19T22:00:36.752Z,25.00
2022-08-19T22:03:10.540Z,25.95
2022-08-19T22:05:44.748Z,26.13
2022-08-19T22:08:18.421Z,26.40
2022-08-19T22:10:54.158Z,28.40
2022-08-19T22:13:28.116Z,30.73
2022-08-19T22:16:01.550Z,28.73
2022-08-19T22:18:36.097Z,27.30
2022-08-19T22:21:12.207Z,28.15
2022-08-19T22:23:49.070Z,26.33
2022-08-19T22:26:24.686Z,21.35
2022-08-19T22:28:59.349Z,29.30
2022-08-19T22:31:35.193Z,25.80
2022-08-19T22:34:10.833Z,30.35
2022-08-19T22:36:44.679Z,28.92
2022-08-19T22:39:18.114Z,28.65
2022-08-19T22:41:54.337Z,28.33
2022-08-19T22:44:27.677Z,24.13
2022-08-19T22:47:01.637Z,25.30
2022-08-19T22:49:35.396Z,26.52
2022-08-19T22:52:21.760Z,26.98
2022-08-19T22:54:57.186Z,27.88
2022-08-19T22:57:32.685Z,28.30
2022-08-19T23:00:06.358Z,28.05
2022-08-19T23:02:51.943Z,25.92
2022-08-19T23:05:29.044Z,26.77
2022-08-19T23:08:02.948Z,23.55
2022-08-19T23:10:36.576Z,26.25
2022-08-19T23:13:13.042Z,22.85
2022-08-19T23:15:47.239Z,24.08
2022-08-19T23:18:22.422Z,21.52
2022-08-19T23:20:55.780Z,23.80
2022-08-19T23:23:30.371Z,26.25
2022-08-19T23:26:04.652Z,25.55
2022-08-19T23:29:02.165Z,22.60
2022-08-19T23:31:37.452Z,24.98
2022-08-19T23:34:11.771Z,21.00
2022-08-19T23:36:45.295Z,26.02
2022-08-19T23:39:18.949Z,24.13
2022-08-19T23:41:52.713Z,23.98
2022-08-19T23:44:28.730Z,27.17
2022-08-19T23:47:04.747Z,20.88
2022-08-19T23:49:40.944Z,27.40
2022-08-19T23:52:14.634Z,23.50
2022-08-19T23:54:48.110Z,20.83
2022-08-19T23:57:21.727Z,22.77
2022-08-19T23:59:57.581Z,20.05
